createdAt,value
2018-09-24T00:02:25.755Z,89.50
2018-09-24T00:04:53.957Z,89.90
2018-09-24T00:07:22.145Z,89.50
2018-09-24T00:09:50.308Z,89.70
2018-09-24T00:12:18.476Z,89.20
2018-09-24T00:14:46.635Z,88.80
2018-09-24T00:17:14.810Z,88.00
2018-09-24T00:19:42.971Z,88.70
2018-09-24T00:22:11.146Z,88.30
2018-09-24T00:24:39.503Z,87.50
2018-09-24T00:27:07.695Z,88.10
2018-09-24T00:29:35.891Z,88.50
2018-09-24T00:32:04.059Z,88.30
2018-09-24T00:34:32.226Z,88.50
2018-09-24T00:37:00.429Z,89.00
2018-09-24T00:39:28.598Z,89.60
2018-09-24T00:41:56.763Z,89.50
2018-09-24T00:44:24.940Z,89.60
2018-09-24T00:46:53.100Z,90.00
2018-09-24T00:49:21.266Z,90.00
2018-09-24T00:51:49.422Z,90.00
2018-09-24T00:54:17.595Z,89.80
2018-09-24T00:56:45.751Z,90.10
2018-09-24T00:59:13.921Z,90.00
2018-09-24T01:01:42.627Z,89.60
2018-09-24T01:04:10.819Z,89.40
2018-09-24T01:06:39.327Z,89.10
2018-09-24T01:09:09.191Z,89.50
2018-09-24T01:11:37.403Z,90.00
2018-09-24T01:14:05.675Z,90.10
2018-09-24T01:16:33.872Z,90.00
2018-09-24T01:19:02.299Z,89.60
2018-09-24T01:21:30.510Z,90.00
2018-09-24T01:23:58.715Z,90.70
2018-09-24T01:26:26.906Z,90.40
2018-09-24T01:28:55.108Z,90.20
2018-09-24T01:31:23.291Z,90.90
2018-09-24T01:33:51.494Z,90.30
2018-09-24T01:36:19.695Z,90.20
2018-09-24T01:38:47.892Z,90.00
2018-09-24T01:41:16.114Z,89.90
2018-09-24T01:43:44.330Z,88.10
2018-09-24T01:46:12.549Z,88.20
2018-09-24T01:48:40.740Z,88.60
2018-09-24T01:51:08.934Z,88.00
2018-09-24T01:53:37.123Z,87.10
2018-09-24T01:56:05.679Z,86.10
2018-09-24T01:58:36.683Z,87.10
2018-09-24T02:01:05.211Z,87.10
2018-09-24T02:03:34.396Z,86.40
2018-09-24T02:06:03.190Z,87.30
2018-09-24T02:08:31.570Z,86.60
2018-09-24T02:11:00.072Z,85.80
2018-09-24T02:13:28.242Z,86.10
2018-09-24T02:15:56.460Z,86.20
2018-09-24T02:18:24.636Z,85.30
2018-09-24T02:20:52.799Z,85.50
2018-09-24T02:23:20.960Z,85.10
2018-09-24T02:25:49.124Z,84.70
2018-09-24T02:28:17.290Z,85.00
2018-09-24T02:30:45.463Z,84.80
2018-09-24T02:33:13.802Z,84.70
2018-09-24T02:35:48.035Z,84.20
2018-09-24T02:38:16.803Z,84.30
2018-09-24T02:40:44.963Z,84.40
2018-09-24T02:43:13.135Z,84.20
2018-09-24T02:45:41.315Z,84.20
2018-09-24T02:48:09.529Z,85.00
2018-09-24T02:50:38.909Z,85.50
2018-09-24T02:53:08.642Z,84.60
2018-09-24T02:55:36.813Z,85.00
2018-09-24T02:58:04.997Z,85.90
2018-09-24T03:00:33.155Z,85.30
2018-09-24T03:03:07.766Z,85.30
2018-09-24T03:05:35.958Z,85.90
2018-09-24T03:08:07.362Z,85.50
2018-09-24T03:10:35.846Z,85.40
2018-09-24T03:13:04.055Z,85.10
2018-09-24T03:15:36.609Z,85.20
2018-09-24T03:18:05.196Z,84.40
2018-09-24T03:20:37.750Z,84.20
2018-09-24T03:23:06.347Z,83.90
2018-09-24T03:25:34.815Z,84.60
2018-09-24T03:28:03.013Z,84.90
2018-09-24T03:30:33.928Z,83.50
2018-09-24T03:33:02.724Z,83.90
2018-09-24T03:35:31.626Z,85.00
2018-09-24T03:37:59.827Z,85.30
2018-09-24T03:40:28.019Z,84.60
2018-09-24T03:42:57.020Z,83.70
2018-09-24T03:45:25.539Z,83.40
2018-09-24T03:47:53.761Z,83.20
2018-09-24T03:50:22.087Z,85.00
2018-09-24T03:52:50.578Z,83.70
2018-09-24T03:55:19.042Z,84.80
2018-09-24T03:57:47.236Z,85.00
2018-09-24T04:00:15.439Z,85.30
2018-09-24T04:02:43.635Z,84.90
2018-09-24T04:05:17.167Z,83.90
2018-09-24T04:07:50.866Z,83.80
2018-09-24T04:10:24.543Z,83.80
2018-09-24T04:12:58.099Z,83.40
2018-09-24T04:15:31.684Z,83.20
2018-09-24T04:18:05.709Z,82.90
2018-09-24T04:20:39.516Z,82.60
2018-09-24T04:23:13.519Z,83.00
2018-09-24T04:25:47.218Z,84.30
2018-09-24T04:28:21.026Z,84.10
2018-09-24T04:30:54.526Z,83.80
2018-09-24T04:33:28.232Z,83.90
2018-09-24T04:36:01.785Z,84.70
2018-09-24T04:38:35.466Z,83.70
2018-09-24T04:41:09.159Z,83.70
2018-09-24T04:43:42.847Z,84.10
2018-09-24T04:46:16.419Z,84.20
2018-09-24T04:48:50.225Z,84.00
2018-09-24T04:51:23.832Z,84.60
2018-09-24T04:53:57.507Z,84.00
2018-09-24T04:56:31.193Z,84.80
2018-09-24T04:59:04.881Z,83.90
2018-09-24T05:01:38.397Z,84.70
2018-09-24T05:04:11.855Z,84.60
2018-09-24T05:06:45.483Z,85.10
2018-09-24T05:09:19.335Z,84.00
2018-09-24T05:11:53.008Z,83.40
2018-09-24T05:14:26.642Z,83.00
2018-09-24T05:17:00.211Z,83.60
2018-09-24T05:19:33.938Z,83.50
2018-09-24T05:22:07.504Z,83.10
2018-09-24T05:24:41.037Z,83.60
2018-09-24T05:27:14.765Z,83.70
2018-09-24T05:29:48.858Z,82.80
2018-09-24T05:32:22.729Z,83.60
2018-09-24T05:34:56.334Z,82.90
2018-09-24T05:37:30.063Z,83.70
2018-09-24T05:40:03.604Z,83.90
2018-09-24T05:42:37.167Z,84.00
2018-09-24T05:45:11.627Z,82.90
2018-09-24T05:47:45.038Z,82.60
2018-09-24T05:50:18.698Z,83.80
2018-09-24T05:52:52.484Z,82.40
2018-09-24T05:55:26.215Z,81.80
2018-09-24T05:57:59.814Z,82.00
2018-09-24T06:00:33.394Z,81.70
2018-09-24T06:03:06.950Z,82.70
2018-09-24T06:05:40.509Z,81.80
2018-09-24T06:08:13.955Z,82.60
2018-09-24T06:10:47.724Z,81.90
2018-09-24T06:13:21.236Z,81.60
2018-09-24T06:15:54.775Z,81.70
2018-09-24T06:18:28.491Z,82.00
2018-09-24T06:21:02.207Z,82.30
2018-09-24T06:23:35.933Z,81.30
2018-09-24T06:26:09.707Z,81.50
2018-09-24T06:28:43.430Z,81.60
2018-09-24T06:31:17.119Z,81.30
2018-09-24T06:33:50.711Z,81.30
2018-09-24T06:36:24.243Z,81.60
2018-09-24T06:38:57.919Z,81.50
2018-09-24T06:41:31.607Z,81.30
2018-09-24T06:44:05.183Z,80.70
2018-09-24T06:46:38.782Z,81.90
2018-09-24T06:49:12.814Z,81.30
2018-09-24T06:51:46.391Z,81.10
2018-09-24T06:54:19.999Z,80.60
2018-09-24T06:56:53.568Z,80.40
2018-09-24T06:59:27.273Z,80.10
2018-09-24T07:02:01.044Z,80.80
2018-09-24T07:04:34.730Z,81.30
2018-09-24T07:07:08.286Z,80.50
2018-09-24T07:09:41.718Z,80.50
2018-09-24T07:12:15.252Z,79.90
2018-09-24T07:14:48.795Z,80.30
2018-09-24T07:17:22.626Z,79.50
2018-09-24T07:19:56.035Z,79.50
2018-09-24T07:22:29.725Z,79.60
2018-09-24T07:25:03.443Z,79.20
2018-09-24T07:27:37.036Z,79.10
2018-09-24T07:30:10.756Z,78.60
2018-09-24T07:32:44.352Z,79.40
2018-09-24T07:35:18.031Z,78.60
2018-09-24T07:37:51.554Z,79.10
2018-09-24T07:40:25.256Z,79.10
2018-09-24T07:42:58.835Z,78.20
2018-09-24T07:45:32.466Z,78.50
2018-09-24T07:48:06.167Z,77.80
2018-09-24T07:50:39.819Z,77.70
2018-09-24T07:53:13.953Z,77.90
2018-09-24T07:55:47.439Z,77.90
2018-09-24T07:58:21.160Z,77.60
2018-09-24T08:00:54.894Z,77.60
2018-09-24T08:03:28.547Z,77.80
2018-09-24T08:06:02.143Z,76.40
2018-09-24T08:08:35.860Z,77.80
2018-09-24T08:11:09.687Z,77.30
2018-09-24T08:13:43.490Z,76.70
2018-09-24T08:16:17.084Z,76.90
2018-09-24T08:18:50.595Z,76.70
2018-09-24T08:21:24.287Z,76.30
2018-09-24T08:23:57.975Z,75.60
2018-09-24T08:26:31.542Z,75.70
2018-09-24T08:29:05.230Z,74.70
2018-09-24T08:31:38.893Z,74.30
2018-09-24T08:34:12.517Z,75.00
2018-09-24T08:36:46.187Z,75.20
2018-09-24T08:39:19.742Z,75.20
2018-09-24T08:41:53.346Z,74.50
2018-09-24T08:44:26.970Z,73.30
2018-09-24T08:47:00.474Z,73.60
2018-09-24T08:49:34.218Z,73.00
2018-09-24T08:52:07.864Z,72.70
2018-09-24T08:54:41.311Z,69.50
2018-09-24T08:57:15.078Z,69.80
2018-09-24T08:59:48.552Z,69.60
2018-09-24T09:02:22.266Z,70.10
2018-09-24T09:04:55.883Z,70.10
2018-09-24T09:07:29.574Z,70.80
2018-09-24T09:10:03.231Z,68.60
2018-09-24T09:12:36.886Z,70.80
2018-09-24T09:15:10.499Z,70.30
2018-09-24T09:17:44.191Z,71.80
2018-09-24T09:20:17.761Z,72.10
2018-09-24T09:22:51.470Z,71.60
2018-09-24T09:25:25.183Z,71.50
2018-09-24T09:27:58.938Z,71.20
2018-09-24T09:30:32.567Z,70.00
2018-09-24T09:33:06.238Z,69.70
2018-09-24T09:35:39.999Z,68.50
2018-09-24T09:38:13.550Z,69.40
2018-09-24T09:40:47.416Z,68.30
2018-09-24T09:43:21.103Z,68.20
2018-09-24T09:45:54.776Z,68.00
2018-09-24T09:48:28.548Z,67.30
2018-09-24T09:51:02.151Z,66.00
2018-09-24T09:53:35.865Z,65.70
2018-09-24T09:56:09.407Z,66.80
2018-09-24T09:58:43.106Z,64.10
2018-09-24T10:01:16.787Z,63.50
2018-09-24T10:03:50.512Z,63.10
2018-09-24T10:06:24.094Z,61.80
2018-09-24T10:08:57.814Z,60.40
2018-09-24T10:11:31.561Z,60.50
2018-09-24T10:14:05.261Z,60.00
2018-09-24T10:16:39.027Z,59.00
2018-09-24T10:19:12.755Z,59.40
2018-09-24T10:21:46.391Z,60.40
2018-09-24T10:24:20.116Z,59.90
2018-09-24T10:26:54.043Z,61.10
2018-09-24T10:29:27.624Z,62.50
2018-09-24T10:32:01.203Z,63.40
2018-09-24T10:34:34.950Z,63.80
2018-09-24T10:37:08.489Z,63.40
2018-09-24T10:39:42.118Z,61.50
2018-09-24T10:42:15.719Z,60.80
2018-09-24T10:44:49.367Z,61.10
2018-09-24T10:47:22.918Z,56.70
2018-09-24T10:49:56.359Z,56.70
2018-09-24T10:52:29.956Z,58.10
2018-09-24T10:55:03.508Z,58.90
2018-09-24T10:57:37.138Z,59.00
2018-09-24T11:00:10.939Z,58.10
2018-09-24T11:02:44.509Z,56.00
2018-09-24T11:05:18.180Z,56.90
2018-09-24T11:07:51.602Z,56.80
2018-09-24T11:10:25.434Z,55.50
2018-09-24T11:12:59.138Z,57.00
2018-09-24T11:15:32.778Z,56.90
2018-09-24T11:18:06.395Z,58.00
2018-09-24T11:20:39.920Z,57.10
2018-09-24T11:23:13.499Z,56.30
2018-09-24T11:25:47.196Z,55.80
2018-09-24T11:28:20.859Z,56.60
2018-09-24T11:30:54.285Z,57.60
2018-09-24T11:33:27.858Z,55.60
2018-09-24T11:36:01.543Z,53.80
2018-09-24T11:38:35.143Z,52.30
2018-09-24T11:41:08.870Z,53.40
2018-09-24T11:43:42.443Z,54.00
2018-09-24T11:46:16.131Z,55.00
2018-09-24T11:48:49.548Z,55.00
2018-09-24T11:51:23.247Z,55.20
2018-09-24T11:53:56.819Z,52.40
2018-09-24T11:56:30.747Z,50.40
2018-09-24T11:59:04.658Z,51.40
2018-09-24T12:01:38.374Z,52.80
2018-09-24T12:04:11.937Z,52.50
2018-09-24T12:06:45.669Z,54.40
2018-09-24T12:09:19.565Z,52.50
2018-09-24T12:11:53.282Z,54.20
2018-09-24T12:14:26.728Z,49.70
2018-09-24T12:17:00.459Z,49.00
2018-09-24T12:19:34.030Z,50.10
2018-09-24T12:22:07.531Z,49.20
2018-09-24T12:24:41.139Z,50.10
2018-09-24T12:27:14.768Z,51.70
2018-09-24T12:29:48.723Z,50.90
2018-09-24T12:32:22.499Z,51.00
2018-09-24T12:34:56.064Z,51.80
2018-09-24T12:37:29.810Z,51.70
2018-09-24T12:40:03.538Z,51.90
2018-09-24T12:42:37.167Z,54.70
2018-09-24T12:45:10.775Z,53.30
2018-09-24T12:47:44.172Z,50.90
2018-09-24T12:50:17.803Z,51.30
2018-09-24T12:52:51.483Z,50.60
2018-09-24T12:55:25.058Z,49.70
2018-09-24T12:57:58.707Z,48.40
2018-09-24T13:00:32.377Z,48.90
2018-09-24T13:03:06.043Z,50.00
2018-09-24T13:05:39.611Z,49.20
2018-09-24T13:08:13.615Z,50.20
2018-09-24T13:10:47.183Z,49.00
2018-09-24T13:13:20.911Z,48.60
2018-09-24T13:15:54.443Z,47.10
2018-09-24T13:18:28.190Z,49.70
2018-09-24T13:21:01.937Z,49.40
2018-09-24T13:23:35.623Z,48.80
2018-09-24T13:26:09.183Z,48.30
2018-09-24T13:28:42.779Z,49.30
2018-09-24T13:31:16.486Z,49.20
2018-09-24T13:33:50.044Z,49.50
2018-09-24T13:36:23.696Z,50.00
2018-09-24T13:38:57.446Z,51.70
2018-09-24T13:41:31.059Z,52.10
2018-09-24T13:44:04.607Z,50.30
2018-09-24T13:46:38.300Z,50.00
2018-09-24T13:49:11.875Z,50.10
2018-09-24T13:51:45.518Z,51.30
2018-09-24T13:54:19.127Z,52.00
2018-09-24T13:56:52.823Z,51.80
2018-09-24T13:59:26.502Z,51.80
2018-09-24T14:02:00.206Z,53.60
2018-09-24T14:04:33.791Z,52.80
2018-09-24T14:07:07.346Z,52.30
2018-09-24T14:09:40.748Z,53.50
2018-09-24T14:12:14.405Z,52.10
2018-09-24T14:14:54.981Z,50.70
2018-09-24T14:17:28.532Z,50.10
2018-09-24T14:20:01.930Z,51.40
2018-09-24T14:22:35.565Z,51.60
2018-09-24T14:25:09.059Z,52.40
2018-09-24T14:27:42.644Z,51.70
2018-09-24T14:30:16.375Z,52.50
2018-09-24T14:32:50.107Z,52.50
2018-09-24T14:35:23.705Z,52.00
2018-09-24T14:37:57.252Z,52.50
2018-09-24T14:40:30.879Z,52.30
2018-09-24T14:43:04.266Z,51.40
2018-09-24T14:45:37.969Z,51.50
2018-09-24T14:48:11.639Z,50.30
2018-09-24T14:50:45.379Z,49.30
2018-09-24T14:53:18.831Z,49.70
2018-09-24T14:55:52.202Z,48.70
2018-09-24T14:58:25.786Z,49.40
2018-09-24T15:00:59.301Z,47.10
2018-09-24T15:03:32.996Z,46.10
2018-09-24T15:06:06.679Z,46.50
2018-09-24T15:08:40.254Z,47.20
2018-09-24T15:11:13.673Z,47.10
2018-09-24T15:13:47.622Z,47.60
2018-09-24T15:16:21.255Z,48.40
2018-09-24T15:18:55.015Z,46.30
2018-09-24T15:21:28.794Z,45.90
2018-09-24T15:24:02.523Z,45.90
2018-09-24T15:26:36.299Z,46.00
2018-09-24T15:29:09.895Z,46.20
2018-09-24T15:31:43.487Z,48.10
2018-09-24T15:34:17.236Z,50.20
2018-09-24T15:36:50.615Z,50.20
2018-09-24T15:39:24.115Z,45.40
2018-09-24T15:41:57.614Z,49.40
2018-09-24T15:44:31.301Z,48.80
2018-09-24T15:47:05.055Z,48.20
2018-09-24T15:49:38.798Z,48.10
2018-09-24T15:52:12.659Z,47.80
2018-09-24T15:54:46.384Z,49.70
2018-09-24T15:57:20.117Z,48.20
2018-09-24T15:59:53.774Z,47.90
2018-09-24T16:02:27.250Z,49.20
2018-09-24T16:05:00.999Z,49.00
2018-09-24T16:07:34.824Z,52.20
2018-09-24T16:10:08.490Z,48.70
2018-09-24T16:12:42.211Z,49.10
2018-09-24T16:15:15.678Z,50.00
2018-09-24T16:17:49.424Z,51.90
2018-09-24T16:20:23.140Z,52.90
2018-09-24T16:22:56.946Z,52.60
2018-09-24T16:25:30.635Z,50.20
2018-09-24T16:28:04.228Z,49.80
2018-09-24T16:30:37.793Z,52.20
2018-09-24T16:33:11.466Z,51.30
2018-09-24T16:35:45.019Z,51.60
2018-09-24T16:38:18.907Z,52.90
2018-09-24T16:40:52.507Z,52.80
2018-09-24T16:43:26.107Z,51.80
2018-09-24T16:45:59.675Z,51.80
2018-09-24T16:48:33.351Z,52.10
2018-09-24T16:51:06.919Z,52.50
2018-09-24T16:53:40.547Z,52.80
2018-09-24T16:56:14.095Z,52.90
2018-09-24T16:58:48.231Z,54.10
2018-09-24T17:01:21.954Z,54.20
2018-09-24T17:03:55.567Z,55.90
2018-09-24T17:06:29.366Z,55.40
2018-09-24T17:09:03.043Z,55.60
2018-09-24T17:11:36.645Z,57.00
2018-09-24T17:14:10.270Z,58.40
2018-09-24T17:16:43.951Z,60.40
2018-09-24T17:19:17.658Z,62.10
2018-09-24T17:21:51.331Z,63.40
2018-09-24T17:24:25.048Z,63.90
2018-09-24T17:26:58.959Z,64.90
2018-09-24T17:29:32.564Z,65.50
2018-09-24T17:32:06.144Z,65.20
2018-09-24T17:34:39.831Z,67.00
2018-09-24T17:37:13.441Z,67.30
2018-09-24T17:39:47.023Z,68.30
2018-09-24T17:42:20.563Z,68.60
2018-09-24T17:44:54.179Z,68.80
2018-09-24T17:47:27.887Z,69.00
2018-09-24T17:50:01.588Z,70.10
2018-09-24T17:52:35.394Z,70.80
2018-09-24T17:55:09.095Z,70.60
2018-09-24T17:57:42.782Z,71.40
2018-09-24T18:00:16.331Z,71.60
2018-09-24T18:02:49.941Z,71.80
2018-09-24T18:05:23.694Z,72.30
2018-09-24T18:07:57.319Z,72.00
2018-09-24T18:10:31.015Z,71.50
2018-09-24T18:13:04.698Z,72.40
2018-09-24T18:15:38.285Z,72.80
2018-09-24T18:18:12.084Z,73.70
2018-09-24T18:20:45.806Z,73.90
2018-09-24T18:23:19.492Z,73.90
2018-09-24T18:25:53.331Z,74.30
2018-09-24T18:28:27.009Z,74.60
2018-09-24T18:31:00.577Z,75.10
2018-09-24T18:33:34.251Z,74.90
2018-09-24T18:36:08.003Z,74.10
2018-09-24T18:38:41.735Z,74.30
2018-09-24T18:41:15.554Z,75.10
2018-09-24T18:43:49.163Z,74.90
2018-09-24T18:46:22.687Z,74.70
2018-09-24T18:48:56.387Z,76.20
2018-09-24T18:51:29.899Z,76.20
2018-09-24T18:54:03.593Z,76.70
2018-09-24T18:56:37.286Z,76.70
2018-09-24T18:59:10.934Z,76.60
2018-09-24T19:01:44.716Z,76.00
2018-09-24T19:04:18.435Z,75.70
2018-09-24T19:06:52.143Z,74.60
2018-09-24T19:09:25.656Z,74.50
2018-09-24T19:11:59.175Z,74.40
2018-09-24T19:14:32.915Z,74.10
2018-09-24T19:17:06.681Z,74.70
2018-09-24T19:19:40.175Z,74.40
2018-09-24T19:22:13.726Z,74.00
2018-09-24T19:24:47.588Z,74.40
2018-09-24T19:27:21.406Z,74.00
2018-09-24T19:29:54.907Z,73.80
2018-09-24T19:32:28.552Z,73.80
2018-09-24T19:35:02.347Z,73.70
2018-09-24T19:37:35.899Z,74.80
2018-09-24T19:40:09.632Z,75.00
2018-09-24T19:42:43.318Z,76.40
2018-09-24T19:45:16.901Z,76.60
2018-09-24T19:47:50.566Z,76.90
2018-09-24T19:50:24.116Z,77.40
2018-09-24T19:52:57.603Z,77.80
2018-09-24T19:55:31.236Z,78.20
2018-09-24T19:58:04.819Z,78.00
2018-09-24T20:00:38.451Z,78.30
2018-09-24T20:03:12.067Z,78.30
2018-09-24T20:05:45.753Z,78.10
2018-09-24T20:08:19.322Z,78.80
2018-09-24T20:10:52.944Z,78.70
2018-09-24T20:13:26.470Z,79.00
2018-09-24T20:15:59.900Z,79.30
2018-09-24T20:18:33.586Z,79.50
2018-09-24T20:21:07.535Z,79.50
2018-09-24T20:23:41.195Z,79.50
2018-09-24T20:26:14.858Z,79.30
2018-09-24T20:28:48.435Z,79.60
2018-09-24T20:31:22.039Z,79.60
2018-09-24T20:33:55.560Z,79.70
2018-09-24T20:36:29.076Z,79.60
2018-09-24T20:39:02.695Z,79.30
2018-09-24T20:41:36.355Z,80.00
2018-09-24T20:44:10.050Z,80.00
2018-09-24T20:46:43.731Z,80.30
2018-09-24T20:49:17.307Z,79.40
2018-09-24T20:51:50.967Z,80.00
2018-09-24T20:54:24.535Z,80.20
2018-09-24T20:56:58.155Z,80.60
2018-09-24T20:59:31.883Z,80.10
2018-09-24T21:02:05.824Z,80.10
2018-09-24T21:04:39.423Z,80.50
2018-09-24T21:07:13.143Z,80.00
2018-09-24T21:09:46.635Z,80.70
2018-09-24T21:12:20.369Z,80.80
2018-09-24T21:14:54.070Z,80.10
2018-09-24T21:17:27.770Z,81.20
2018-09-24T21:20:01.350Z,81.20
2018-09-24T21:22:35.016Z,81.70
2018-09-24T21:25:08.589Z,81.10
2018-09-24T21:27:42.300Z,81.00
2018-09-24T21:30:15.988Z,80.70
2018-09-24T21:32:49.671Z,80.70
2018-09-24T21:35:23.359Z,80.60
2018-09-24T21:37:57.059Z,81.50
2018-09-24T21:40:31.074Z,81.70
2018-09-24T21:43:04.730Z,82.00
2018-09-24T21:45:38.212Z,81.80
2018-09-24T21:48:11.891Z,81.50
2018-09-24T21:50:45.463Z,82.40
2018-09-24T21:53:19.095Z,82.10
2018-09-24T21:55:52.894Z,81.80
2018-09-24T21:58:26.565Z,81.60
2018-09-24T22:01:00.255Z,81.60
2018-09-24T22:03:33.886Z,81.80
2018-09-24T22:06:07.541Z,81.50
2018-09-24T22:08:41.195Z,81.90
2018-09-24T22:11:14.759Z,81.40
2018-09-24T22:13:48.499Z,81.90
2018-09-24T22:16:22.071Z,81.90
2018-09-24T22:18:55.734Z,81.40
2018-09-24T22:21:29.359Z,81.30
2018-09-24T22:24:03.094Z,82.00
2018-09-24T22:26:36.811Z,82.60
2018-09-24T22:29:10.471Z,82.50
2018-09-24T22:31:43.995Z,82.30
2018-09-24T22:34:17.530Z,82.60
2018-09-24T22:36:51.174Z,82.50
2018-09-24T22:39:24.866Z,82.80
2018-09-24T22:41:58.530Z,82.40
2018-09-24T22:44:32.214Z,81.90
2018-09-24T22:47:05.926Z,82.30
2018-09-24T22:49:39.619Z,82.50
2018-09-24T22:52:13.195Z,82.70
2018-09-24T22:54:46.802Z,82.70
2018-09-24T22:57:20.695Z,82.50
2018-09-24T22:59:54.436Z,82.70
2018-09-24T23:02:28.011Z,83.10
2018-09-24T23:05:01.724Z,82.80
2018-09-24T23:07:35.239Z,82.70
2018-09-24T23:10:08.932Z,83.10
2018-09-24T23:12:42.656Z,82.70
2018-09-24T23:15:16.432Z,83.20
2018-09-24T23:17:50.150Z,82.70
2018-09-24T23:20:23.787Z,83.10
2018-09-24T23:22:57.363Z,83.20
2018-09-24T23:25:31.049Z,83.10
2018-09-24T23:28:04.568Z,83.40
2018-09-24T23:30:38.251Z,83.00
2018-09-24T23:33:11.804Z,83.00
2018-09-24T23:35:45.542Z,83.30
2018-09-24T23:38:19.255Z,83.50
2018-09-24T23:40:52.943Z,83.70
2018-09-24T23:43:26.516Z,83.80
2018-09-24T23:46:00.155Z,83.60
2018-09-24T23:48:33.719Z,83.60
2018-09-24T23:51:07.350Z,84.10
2018-09-24T23:53:41.302Z,83.70
2018-09-24T23:56:14.844Z,83.50
2018-09-24T23:58:48.544Z,82.80
